Time;durP1;ratioP1;P1;durP2;ratioP2;P2;SDS_P1;SDS_P2;PMS_P1;PMS_P2;Temp;Humidity;BMP_temperature;BMP_pressure;BME280_temperature;BME280_humidity;BME280_pressure;Samples;Min_cycle;Max_cycle;Signal;HPM_P1;HPM_P2
2023/03/26 00:01:25;;;;;;;7.63;1.90;;;7.60;99.90;;;;;;5030018;28;20048;-75
2023/03/26 00:03:53;;;;;;;8.52;2.45;;;7.60;99.90;;;;;;5013220;28;20384;-74
2023/03/26 00:06:32;;;;;;;6.82;2.28;;;7.60;99.90;;;;;;5032680;28;20115;-74
2023/03/26 00:08:58;;;;;;;9.43;2.10;;;7.50;99.90;;;;;;5015377;28;20128;-74
2023/03/26 00:11:26;;;;;;;8.88;2.10;;;7.50;99.90;;;;;;5033409;28;20129;-73
2023/03/26 00:13:55;;;;;;;8.35;2.15;;;7.50;99.90;;;;;;5015179;28;20124;-74
2023/03/26 00:16:25;;;;;;;11.30;2.42;;;7.50;99.90;;;;;;5033205;28;20088;-74
2023/03/26 00:18:52;;;;;;;11.43;2.28;;;7.50;99.90;;;;;;5010320;28;20045;-75
2023/03/26 00:21:20;;;;;;;8.88;2.17;;;7.50;99.90;;;;;;5006755;28;20052;-74
2023/03/26 00:23:47;;;;;;;7.80;2.47;;;7.50;99.90;;;;;;5031975;28;20045;-74
2023/03/26 00:26:16;;;;;;;7.40;2.28;;;7.50;99.90;;;;;;5028366;28;20084;-75
2023/03/26 00:28:42;;;;;;;6.95;2.08;;;7.50;99.90;;;;;;5024681;28;20506;-75
2023/03/26 00:31:10;;;;;;;5.75;2.00;;;7.40;99.90;;;;;;5025317;28;20330;-75
2023/03/26 00:33:37;;;;;;;7.47;2.20;;;7.40;99.90;;;;;;5024550;28;20137;-75
2023/03/26 00:36:05;;;;;;;7.88;2.42;;;7.30;99.90;;;;;;5024245;28;20475;-75
2023/03/26 00:38:32;;;;;;;6.50;2.17;;;7.20;99.90;;;;;;5005250;28;20077;-75
2023/03/26 00:41:04;;;;;;;11.57;2.35;;;7.20;99.90;;;;;;5025053;28;20056;-74
2023/03/26 00:43:32;;;;;;;8.02;2.45;;;7.20;99.90;;;;;;5006189;28;20057;-75
2023/03/26 00:45:58;;;;;;;7.30;2.40;;;7.10;99.90;;;;;;5007484;28;20107;-74
2023/03/26 00:48:26;;;;;;;9.63;2.17;;;7.10;99.90;;;;;;5023723;28;20483;-74
2023/03/26 00:50:52;;;;;;;5.70;1.90;;;7.00;99.90;;;;;;5022231;28;20041;-75
2023/03/26 00:53:18;;;;;;;10.55;2.45;;;7.00;99.90;;;;;;5026442;28;20060;-75
2023/03/26 00:55:46;;;;;;;8.77;2.30;;;7.10;99.90;;;;;;5021181;28;20046;-75
2023/03/26 00:58:13;;;;;;;8.75;2.22;;;7.00;99.90;;;;;;5005363;28;20053;-75
2023/03/26 01:01:02;;;;;;;7.13;2.30;;;6.90;99.90;;;;;;5029268;28;20034;-75
2023/03/26 01:03:32;;;;;;;6.15;1.90;;;6.90;99.90;;;;;;5031964;28;20071;-74
2023/03/26 01:06:03;;;;;;;6.97;2.35;;;6.80;99.90;;;;;;5043393;28;20044;-74
2023/03/26 01:08:35;;;;;;;6.53;2.13;;;6.90;99.90;;;;;;5028640;28;20441;-75
2023/03/26 01:11:06;;;;;;;10.32;2.28;;;6.90;99.90;;;;;;5042996;28;20081;-74
2023/03/26 01:13:35;;;;;;;7.85;2.00;;;7.00;99.90;;;;;;5022784;28;20033;-75
2023/03/26 01:16:01;;;;;;;7.00;2.20;;;7.00;99.90;;;;;;5035151;28;20441;-75
2023/03/26 01:18:32;;;;;;;6.53;2.22;;;7.00;99.90;;;;;;5024455;28;20459;-76
2023/03/26 01:21:08;;;;;;;9.20;2.25;;;7.00;99.90;;;;;;5041131;28;20419;-75
2023/03/26 01:23:41;;;;;;;5.28;2.10;;;7.00;99.90;;;;;;5023341;28;20539;-75
2023/03/26 01:26:44;;;;;;;5.60;1.83;;;7.00;99.90;;;;;;5032003;28;20535;-74
2023/03/26 01:29:19;;;;;;;8.60;2.20;;;6.90;99.90;;;;;;5031564;28;20183;-74
2023/03/26 01:31:54;;;;;;;8.07;2.20;;;6.90;99.90;;;;;;5028634;28;20045;-77
2023/03/26 01:34:23;;;;;;;9.35;2.13;;;6.80;99.90;;;;;;4985463;28;20491;-76
2023/03/26 01:36:55;;;;;;;8.85;2.28;;;6.80;99.90;;;;;;5010326;28;20084;-76
2023/03/26 01:39:55;;;;;;;9.55;2.03;;;6.70;99.90;;;;;;5027072;28;20045;-76
2023/03/26 01:42:46;;;;;;;6.80;2.53;;;6.70;99.90;;;;;;5029394;28;20136;-76
2023/03/26 01:45:17;;;;;;;8.52;2.30;;;6.70;99.90;;;;;;5029327;28;20452;-75
2023/03/26 01:47:45;;;;;;;8.63;2.38;;;6.60;99.90;;;;;;5025645;28;20060;-75
2023/03/26 01:50:11;;;;;;;5.82;2.30;;;6.60;99.90;;;;;;5025502;28;20749;-75
2023/03/26 01:52:37;;;;;;;11.18;2.20;;;6.60;99.90;;;;;;5010946;28;20048;-75
2023/03/26 01:55:04;;;;;;;7.60;2.33;;;6.60;99.90;;;;;;5027595;28;20052;-76
2023/03/26 01:57:57;;;;;;;6.25;2.17;;;6.70;99.90;;;;;;5026640;28;20503;-76
2023/03/26 02:00:32;;;;;;;6.13;2.08;;;6.70;99.90;;;;;;5030179;28;20037;-76
2023/03/26 02:03:08;;;;;;;10.07;2.20;;;6.80;99.90;;;;;;5029086;28;20446;-75
2023/03/26 02:05:52;;;;;;;9.90;2.58;;;6.80;99.90;;;;;;5017524;28;20054;-76
2023/03/26 02:08:23;;;;;;;6.75;2.30;;;6.80;99.90;;;;;;5018015;28;20124;-75
2023/03/26 02:10:56;;;;;;;7.53;1.90;;;6.90;99.90;;;;;;5017883;28;20106;-75
2023/03/26 02:13:24;;;;;;;9.57;2.53;;;6.90;99.90;;;;;;5035168;28;20061;-75
2023/03/26 02:16:05;;;;;;;6.25;2.33;;;6.80;99.90;;;;;;5035559;28;20049;-75
2023/03/26 02:18:37;;;;;;;8.85;2.80;;;6.80;99.90;;;;;;5025475;28;20088;-75
2023/03/26 02:21:20;;;;;;;6.68;2.25;;;6.70;99.90;;;;;;5024769;28;20050;-75
2023/03/26 02:24:01;;;;;;;7.80;2.15;;;6.60;99.90;;;;;;5033367;28;20049;-75
2023/03/26 02:26:28;;;;;;;11.85;2.40;;;6.60;99.90;;;;;;5035067;28;20052;-75
2023/03/26 02:28:54;;;;;;;7.47;2.40;;;6.50;99.90;;;;;;5024486;28;20432;-74
2023/03/26 02:31:20;;;;;;;6.90;2.35;;;6.40;99.90;;;;;;5031387;28;20033;-75
2023/03/26 02:33:48;;;;;;;6.60;2.00;;;6.30;99.90;;;;;;5027074;28;20045;-75
2023/03/26 02:36:16;;;;;;;7.07;2.20;;;6.20;99.90;;;;;;5024846;28;20433;-76
2023/03/26 02:38:42;;;;;;;7.70;2.10;;;6.10;99.90;;;;;;5025439;28;20510;-75
2023/03/26 02:41:07;;;;;;;9.90;2.67;;;6.10;99.90;;;;;;5025188;28;21614;-75
2023/03/26 02:43:33;;;;;;;8.80;2.80;;;6.20;99.90;;;;;;5024051;28;20415;-75
2023/03/26 02:45:59;;;;;;;7.05;2.50;;;6.20;99.90;;;;;;5024637;28;20064;-75
2023/03/26 02:48:25;;;;;;;6.38;2.38;;;6.10;99.90;;;;;;5025609;28;20049;-75
2023/03/26 02:50:53;;;;;;;11.23;3.20;;;6.20;99.90;;;;;;5006988;28;20050;-75
2023/03/26 02:53:20;;;;;;;;;;;6.10;99.90;;;;;;5005323;28;20091;-75
2023/03/26 02:55:46;;;;;;;12.45;3.22;;;6.10;99.90;;;;;;5026600;28;19920;-75
2023/03/26 02:58:16;;;;;;;8.68;3.13;;;6.20;99.90;;;;;;5025923;28;20662;-75
2023/03/26 03:00:45;;;;;;;7.35;2.60;;;6.20;99.90;;;;;;5025537;28;20033;-75
2023/03/26 03:03:12;;;;;;;9.15;2.97;;;6.20;99.90;;;;;;5026411;28;20415;-75
2023/03/26 03:05:41;;;;;;;7.05;2.80;;;6.20;99.90;;;;;;5025266;28;20114;-74
2023/03/26 03:08:08;;;;;;;8.70;3.22;;;6.20;99.90;;;;;;5019847;28;20406;-74
2023/03/26 03:10:34;;;;;;;8.05;2.90;;;6.20;99.90;;;;;;5027114;28;20080;-76
2023/03/26 03:13:00;;;;;;;10.73;2.75;;;6.10;99.90;;;;;;5014162;28;20128;-76
2023/03/26 03:15:27;;;;;;;7.32;2.60;;;6.20;99.90;;;;;;5026152;28;20422;-76
2023/03/26 03:17:52;;;;;;;6.60;2.72;;;6.20;99.90;;;;;;5024184;28;20049;-75
2023/03/26 03:20:18;;;;;;;7.30;2.83;;;6.20;99.90;;;;;;5025399;28;20037;-75
2023/03/26 03:22:43;;;;;;;9.02;2.60;;;6.20;99.90;;;;;;4978213;28;20464;-75
2023/03/26 03:25:16;;;;;;;8.73;2.83;;;6.00;99.90;;;;;;5022771;28;20056;-76
2023/03/26 03:27:43;;;;;;;9.50;2.72;;;6.00;99.90;;;;;;5030836;28;20136;-76
2023/03/26 03:30:11;;;;;;;10.85;3.30;;;6.30;99.90;;;;;;5034503;28;20041;-75
2023/03/26 03:32:36;;;;;;;;;;;6.30;99.90;;;;;;5035416;28;20395;-75
2023/03/26 03:35:02;;;;;;;10.95;3.05;;;6.00;99.90;;;;;;5041878;28;19927;-75
2023/03/26 03:37:28;;;;;;;10.63;3.60;;;6.10;99.90;;;;;;5015240;28;20041;-75
2023/03/26 03:39:54;;;;;;;9.65;2.70;;;5.20;99.90;;;;;;5041669;28;20041;-75
2023/03/26 03:42:19;;;;;;;8.60;2.90;;;5.90;99.90;;;;;;5053500;28;20509;-75
2023/03/26 03:44:45;;;;;;;12.00;3.83;;;5.70;99.90;;;;;;5040621;28;20144;-75
2023/03/26 03:47:12;;;;;;;9.82;2.90;;;5.60;99.90;;;;;;5033411;28;20467;-74
2023/03/26 03:49:39;;;;;;;9.93;3.50;;;5.60;99.90;;;;;;5016074;28;20057;-75
2023/03/26 03:52:05;;;;;;;6.25;2.70;;;5.60;99.90;;;;;;5033497;28;20053;-75
2023/03/26 03:54:31;;;;;;;9.18;3.08;;;5.60;99.90;;;;;;5031537;28;20050;-76
2023/03/26 03:56:57;;;;;;;8.77;2.47;;;5.50;99.90;;;;;;5024708;28;20049;-75
2023/03/26 03:59:23;;;;;;;8.77;2.58;;;5.60;99.90;;;;;;5023192;28;20439;-75
2023/03/26 04:01:49;;;;;;;7.82;2.67;;;5.50;99.90;;;;;;5025176;28;20124;-75
2023/03/26 04:04:16;;;;;;;9.63;2.85;;;5.60;99.90;;;;;;5009135;28;20053;-75
2023/03/26 04:06:42;;;;;;;10.38;3.03;;;5.50;99.90;;;;;;5007920;28;20436;-75
2023/03/26 04:09:09;;;;;;;8.30;3.03;;;5.70;99.90;;;;;;5034502;28;20077;-74
2023/03/26 04:11:35;;;;;;;10.73;3.00;;;5.80;99.90;;;;;;5040843;28;20041;-75
2023/03/26 04:14:01;;;;;;;9.00;2.83;;;5.60;99.90;;;;;;5045064;28;20557;-75
2023/03/26 04:16:26;;;;;;;8.73;2.90;;;5.70;99.90;;;;;;5043741;28;20120;-75
2023/03/26 04:18:52;;;;;;;6.13;3.20;;;5.70;99.90;;;;;;5033440;28;20076;-75
2023/03/26 04:21:18;;;;;;;7.03;2.75;;;5.80;99.90;;;;;;5033507;28;20064;-75
2023/03/26 04:23:44;;;;;;;10.27;3.28;;;5.80;99.90;;;;;;5040898;28;20033;-75
2023/03/26 04:26:18;;;;;;;6.20;2.83;;;5.80;99.90;;;;;;5007041;28;20128;-76
2023/03/26 04:28:55;;;;;;;12.10;3.17;;;5.80;99.90;;;;;;5032272;28;20395;-75
2023/03/26 04:31:27;;;;;;;8.93;3.47;;;6.00;99.90;;;;;;5040455;28;20057;-75
2023/03/26 04:34:14;;;;;;;9.30;3.22;;;5.90;99.90;;;;;;5035844;28;20079;-75
2023/03/26 04:36:41;;;;;;;11.20;3.73;;;6.00;99.90;;;;;;5015414;28;20056;-75
2023/03/26 04:39:10;;;;;;;8.40;3.85;;;6.00;99.90;;;;;;5038780;28;20450;-75
2023/03/26 04:41:36;;;;;;;13.43;4.20;;;6.10;99.90;;;;;;5028173;28;20065;-75
2023/03/26 04:44:02;;;;;;;12.98;4.35;;;6.20;99.90;;;;;;5035894;28;20037;-75
2023/03/26 04:46:33;;;;;;;12.48;4.00;;;6.00;99.90;;;;;;5031398;28;20045;-76
2023/03/26 04:49:00;;;;;;;8.63;4.00;;;6.30;99.90;;;;;;5027830;28;20044;-76
2023/03/26 04:51:33;;;;;;;14.90;4.60;;;6.20;99.90;;;;;;5031233;28;20076;-76
2023/03/26 04:54:01;;;;;;;9.60;4.88;;;6.10;99.90;;;;;;5047870;28;20045;-76
2023/03/26 04:56:56;;;;;;;12.10;4.28;;;6.20;99.90;;;;;;5030703;28;20049;-75
2023/03/26 04:59:28;;;;;;;12.07;4.40;;;6.20;99.90;;;;;;5032899;28;20124;-75
2023/03/26 05:01:56;;;;;;;7.85;4.07;;;6.20;99.90;;;;;;5030079;28;20767;-76
2023/03/26 05:04:23;;;;;;;8.13;4.50;;;6.20;99.90;;;;;;5018223;28;20444;-76
2023/03/26 05:06:48;;;;;;;14.30;4.60;;;6.20;99.90;;;;;;5040519;28;20044;-76
2023/03/26 05:09:14;;;;;;;12.90;4.72;;;6.20;99.90;;;;;;5041900;28;20051;-76
2023/03/26 05:11:40;;;;;;;9.18;4.40;;;6.20;99.90;;;;;;5047191;28;20045;-76
2023/03/26 05:14:07;;;;;;;12.30;5.00;;;;;;;;;;5034875;28;20120;-76
2023/03/26 05:16:33;;;;;;;14.88;5.70;;;;;;;;;;5033696;28;20042;-76
2023/03/26 05:18:59;;;;;;;13.95;5.22;;;;;;;;;;5041068;28;20045;-76
2023/03/26 05:21:25;;;;;;;8.85;4.60;;;;;;;;;;5026500;28;20107;-76
2023/03/26 05:23:51;;;;;;;11.98;5.68;;;6.60;99.90;;;;;;5034007;28;20108;-75
2023/03/26 05:26:17;;;;;;;13.27;4.68;;;6.60;99.90;;;;;;5036719;28;20120;-75
2023/03/26 05:28:42;;;;;;;15.27;5.47;;;6.40;99.90;;;;;;5026538;28;20038;-75
2023/03/26 05:31:09;;;;;;;9.48;4.93;;;6.50;99.90;;;;;;5040842;28;20037;-75
2023/03/26 05:33:35;;;;;;;10.48;5.05;;;6.40;99.90;;;;;;5037589;28;20041;-76
2023/03/26 05:36:03;;;;;;;10.23;5.20;;;6.40;99.90;;;;;;5033174;28;20048;-76
2023/03/26 05:38:29;;;;;;;;;;;6.40;99.90;;;;;;5040284;28;20238;-76
2023/03/26 05:41:03;;;;;;;15.18;5.28;;;6.50;99.90;;;;;;5047345;28;19924;-75
2023/03/26 05:43:29;;;;;;;10.52;5.20;;;6.50;99.90;;;;;;5038488;28;20050;-75
2023/03/26 05:45:55;;;;;;;9.32;5.13;;;6.50;99.90;;;;;;5041157;28;20091;-75
2023/03/26 05:48:21;;;;;;;12.63;5.05;;;6.60;99.90;;;;;;5038390;28;20045;-76
2023/03/26 05:50:48;;;;;;;10.02;5.30;;;6.60;99.90;;;;;;5033612;28;20045;-76
2023/03/26 05:53:14;;;;;;;12.60;5.80;;;6.60;99.90;;;;;;5031661;28;20056;-76
2023/03/26 05:55:44;;;;;;;13.07;5.32;;;6.80;99.90;;;;;;5036026;28;20033;-75
2023/03/26 05:58:10;;;;;;;11.43;5.53;;;6.70;99.90;;;;;;5026806;28;20679;-75
2023/03/26 06:00:37;;;;;;;13.38;5.80;;;6.60;99.90;;;;;;5010953;28;20125;-74
2023/03/26 06:03:04;;;;;;;11.63;6.10;;;6.90;99.90;;;;;;5028499;28;20057;-75
2023/03/26 06:05:36;;;;;;;12.80;6.18;;;6.90;99.90;;;;;;5035109;28;20049;-74
2023/03/26 06:08:02;;;;;;;15.05;6.03;;;6.80;99.90;;;;;;5015518;28;20042;-73
2023/03/26 06:10:29;;;;;;;12.05;6.10;;;6.80;99.90;;;;;;5035131;28;20045;-74
2023/03/26 06:12:54;;;;;;;13.55;6.03;;;6.80;99.90;;;;;;5035196;28;20041;-74
2023/03/26 06:15:21;;;;;;;12.07;6.00;;;;;;;;;;5035005;28;20395;-74
2023/03/26 06:17:47;;;;;;;10.25;5.68;;;;;;;;;;5034934;28;20045;-75
2023/03/26 06:20:13;;;;;;;13.52;5.93;;;7.00;99.90;;;;;;5035399;28;20052;-74
2023/03/26 06:22:39;;;;;;;12.88;5.68;;;7.00;99.90;;;;;;5021532;28;20053;-74
2023/03/26 06:25:05;;;;;;;15.18;6.13;;;7.10;99.90;;;;;;5035118;28;20045;-74
2023/03/26 06:27:30;;;;;;;11.82;6.18;;;7.10;99.90;;;;;;5034871;28;20045;-74
2023/03/26 06:29:56;;;;;;;12.60;6.30;;;7.10;99.90;;;;;;5033374;28;20080;-74
2023/03/26 06:32:22;;;;;;;12.60;5.75;;;7.10;99.90;;;;;;5034708;28;20034;-73
2023/03/26 06:34:48;;;;;;;12.13;5.60;;;7.20;99.90;;;;;;5010860;28;20487;-74
2023/03/26 06:37:14;;;;;;;10.10;5.32;;;7.20;99.90;;;;;;5025738;28;20668;-74
2023/03/26 06:39:40;;;;;;;11.57;5.75;;;7.20;99.90;;;;;;5024429;28;20059;-74
2023/03/26 06:42:05;;;;;;;12.27;5.07;;;7.30;99.90;;;;;;5026499;28;20121;-75
2023/03/26 06:44:31;;;;;;;13.80;5.65;;;7.30;99.90;;;;;;5025657;28;21019;-75
2023/03/26 06:46:56;;;;;;;12.68;4.72;;;7.30;99.90;;;;;;5023643;28;20044;-74
2023/03/26 06:49:22;;;;;;;12.48;4.60;;;7.30;99.90;;;;;;5007937;28;20056;-74
2023/03/26 06:51:48;;;;;;;8.27;3.92;;;7.30;99.90;;;;;;5024948;28;20122;-75
2023/03/26 06:54:14;;;;;;;12.60;4.18;;;7.30;99.90;;;;;;5004900;28;20041;-74
2023/03/26 06:56:39;;;;;;;17.25;4.40;;;7.30;99.90;;;;;;5028456;28;20475;-75
2023/03/26 06:59:05;;;;;;;11.20;4.32;;;7.30;99.90;;;;;;5028054;28;20084;-75
2023/03/26 07:01:31;;;;;;;10.82;4.10;;;7.30;99.90;;;;;;5027581;28;20033;-75
2023/03/26 07:03:57;;;;;;;11.45;4.40;;;7.40;99.90;;;;;;5008265;28;20057;-75
2023/03/26 07:06:23;;;;;;;17.60;5.85;;;7.40;99.90;;;;;;5025865;28;20444;-75
2023/03/26 07:08:48;;;;;;;15.07;4.30;;;7.50;99.90;;;;;;5024496;28;20068;-75
2023/03/26 07:11:15;;;;;;;11.38;3.95;;;7.60;99.90;;;;;;5009481;28;20041;-75
2023/03/26 07:13:41;;;;;;;16.77;4.32;;;8.00;99.90;;;;;;5024490;28;20318;-75
2023/03/26 07:16:07;;;;;;;15.20;3.15;;;7.90;99.90;;;;;;5025902;28;20072;-75
2023/03/26 07:18:33;;;;;;;10.25;3.22;;;7.90;99.90;;;;;;5021866;28;20029;-75
2023/03/26 07:20:59;;;;;;;12.32;3.60;;;7.90;99.90;;;;;;5024682;28;20037;-75
2023/03/26 07:23:25;;;;;;;17.45;4.00;;;;;;;;;;5012111;28;20045;-75
2023/03/26 07:25:51;;;;;;;10.95;3.95;;;8.60;99.90;;;;;;5033496;28;20046;-75
2023/03/26 07:28:32;;;;;;;16.17;4.15;;;7.90;99.90;;;;;;5033629;28;20589;-75
2023/03/26 07:31:13;;;;;;;12.60;3.22;;;8.00;99.90;;;;;;5033795;28;20398;-76
2023/03/26 07:34:12;;;;;;;12.93;3.40;;;7.90;99.90;;;;;;5033468;28;20095;-76
2023/03/26 07:36:50;;;;;;;12.38;3.42;;;8.00;99.90;;;;;;5032855;28;20053;-75
2023/03/26 07:39:19;;;;;;;10.98;3.15;;;8.10;99.90;;;;;;5033556;28;20428;-75
2023/03/26 07:41:54;;;;;;;15.45;4.10;;;7.80;99.90;;;;;;5033350;28;20052;-75
2023/03/26 07:44:55;;;;;;;14.95;3.58;;;7.90;99.90;;;;;;5033367;28;20045;-75
2023/03/26 07:47:31;;;;;;;12.68;3.70;;;7.90;99.90;;;;;;5015644;28;20400;-76
2023/03/26 07:49:57;;;;;;;21.77;4.00;;;8.00;99.90;;;;;;5033072;28;20074;-75
2023/03/26 07:52:24;;;;;;;17.92;3.92;;;8.00;99.90;;;;;;5031503;28;20113;-75
2023/03/26 07:54:50;;;;;;;12.57;3.58;;;7.90;99.90;;;;;;5025100;28;20045;-76
2023/03/26 07:57:33;;;;;;;19.38;4.00;;;8.00;99.90;;;;;;5024730;28;20565;-75
2023/03/26 08:00:07;;;;;;;18.55;3.20;;;;;;;;;;5007611;28;20507;-77
2023/03/26 08:03:07;;;;;;;24.20;4.32;;;8.10;99.90;;;;;;5022836;28;20120;-77
2023/03/26 08:06:07;;;;;;;19.73;3.78;;;8.10;99.90;;;;;;5023066;28;20049;-77
2023/03/26 08:08:52;;;;;;;17.10;3.20;;;8.10;99.90;;;;;;5006163;28;20491;-77
2023/03/26 08:11:35;;;;;;;21.85;4.38;;;8.20;99.90;;;;;;5002507;28;20117;-77
2023/03/26 08:14:20;;;;;;;15.05;3.40;;;8.20;99.90;;;;;;5027469;28;20136;-77
2023/03/26 08:16:55;;;;;;;21.52;4.55;;;8.10;99.90;;;;;;5051456;28;20132;-77
2023/03/26 08:19:39;;;;;;;19.67;2.90;;;8.10;99.90;;;;;;5029918;28;20433;-76
2023/03/26 08:22:19;;;;;;;19.50;3.55;;;8.10;99.90;;;;;;5031073;28;20460;-76
2023/03/26 08:25:33;;;;;;;19.20;3.50;;;8.30;99.90;;;;;;5029806;28;20121;-77
2023/03/26 08:28:23;;;;;;;20.92;3.90;;;8.30;99.90;;;;;;4968050;28;20128;-78
2023/03/26 08:30:49;;;;;;;16.77;3.50;;;8.40;99.90;;;;;;4974681;28;20396;-78
2023/03/26 08:33:19;;;;;;;17.65;3.75;;;8.20;99.90;;;;;;4970350;28;20055;-77
2023/03/26 08:35:45;;;;;;;26.08;4.03;;;8.30;99.90;;;;;;4986029;28;20101;-77
2023/03/26 08:38:12;;;;;;;15.48;3.28;;;8.30;99.90;;;;;;4976012;28;20047;-77
2023/03/26 08:41:09;;;;;;;21.58;3.90;;;8.30;99.90;;;;;;4984875;28;20133;-75
2023/03/26 08:44:07;;;;;;;9.30;2.25;;;8.40;99.90;;;;;;4988280;28;20089;-77
2023/03/26 08:46:54;;;;;;;18.90;3.30;;;8.40;99.90;;;;;;4912635;29;20448;-77
2023/03/26 08:49:20;;;;;;;;;;;8.20;99.90;;;;;;4891479;29;20096;-77
2023/03/26 08:51:49;;;;;;;21.73;3.88;;;8.20;99.90;;;;;;4879867;29;19982;-78
2023/03/26 08:54:39;;;;;;;15.52;4.03;;;8.30;99.90;;;;;;4895157;29;20273;-78
2023/03/26 08:57:34;;;;;;;16.58;2.75;;;8.20;99.90;;;;;;4892340;29;20061;-78
2023/03/26 09:00:17;;;;;;;17.83;3.50;;;8.10;99.90;;;;;;4932571;29;20059;-78
2023/03/26 09:03:16;;;;;;;17.45;3.47;;;8.20;99.90;;;;;;4940541;28;20099;-78
2023/03/26 09:06:28;;;;;;;13.45;3.15;;;8.20;99.90;;;;;;4934666;29;20052;-77
2023/03/26 09:09:32;;;;;;;20.25;3.50;;;8.20;99.90;;;;;;4931264;29;20058;-78
2023/03/26 09:12:16;;;;;;;17.88;3.72;;;8.20;99.90;;;;;;4901913;29;20123;-78
2023/03/26 09:15:06;;;;;;;18.73;2.63;;;8.10;99.90;;;;;;4930770;29;20047;-77
2023/03/26 09:17:57;;;;;;;20.25;3.58;;;8.00;99.90;;;;;;4917230;29;20044;-77
2023/03/26 09:20:50;;;;;;;18.17;3.05;;;8.00;99.90;;;;;;4932249;29;20051;-77
2023/03/26 09:23:37;;;;;;;10.75;1.98;;;7.90;99.90;;;;;;5024010;28;20487;-78
2023/03/26 09:26:13;;;;;;;23.33;3.20;;;8.00;99.90;;;;;;5032833;28;20048;-78
2023/03/26 09:28:41;;;;;;;15.90;3.70;;;8.00;99.90;;;;;;5027954;28;20511;-78
2023/03/26 09:31:16;;;;;;;16.70;2.72;;;8.10;99.90;;;;;;5026971;28;20403;-78
2023/03/26 09:34:10;;;;;;;13.15;2.38;;;8.10;99.90;;;;;;5016215;28;20526;-78
2023/03/26 09:37:16;;;;;;;11.52;2.60;;;8.10;99.90;;;;;;5035711;28;20041;-78
2023/03/26 09:40:16;;;;;;;14.85;2.88;;;8.10;99.90;;;;;;5011768;28;20406;-78
2023/03/26 09:42:55;;;;;;;14.15;2.78;;;8.20;99.90;;;;;;5027413;28;20124;-77
2023/03/26 09:45:48;;;;;;;11.18;2.00;;;8.30;99.90;;;;;;5007506;28;20125;-77
2023/03/26 09:48:23;;;;;;;16.45;3.40;;;8.30;99.90;;;;;;5024223;28;20050;-78
2023/03/26 09:51:16;;;;;;;12.43;3.15;;;8.40;99.90;;;;;;5027063;28;20041;-78
2023/03/26 09:54:08;;;;;;;17.80;3.15;;;8.40;99.90;;;;;;5014293;28;20080;-78
2023/03/26 09:56:48;;;;;;;16.45;2.90;;;8.50;99.90;;;;;;5016552;28;20381;-78
2023/03/26 09:59:41;;;;;;;11.43;2.35;;;8.70;99.90;;;;;;5034977;28;20533;-78
2023/03/26 10:02:45;;;;;;;16.48;2.60;;;8.80;99.90;;;;;;5039275;28;20195;-78
2023/03/26 10:05:41;;;;;;;13.10;2.53;;;9.00;99.90;;;;;;5031183;28;20033;-77
2023/03/26 10:08:23;;;;;;;17.20;2.80;;;9.10;99.90;;;;;;5031445;28;20046;-76
2023/03/26 10:10:55;;;;;;;16.80;2.55;;;8.90;99.90;;;;;;5034559;28;20041;-77
2023/03/26 10:13:24;;;;;;;19.88;3.13;;;8.80;99.90;;;;;;5040993;28;20046;-80
2023/03/26 10:16:04;;;;;;;9.30;2.45;;;9.00;99.90;;;;;;5019625;28;20056;-78
2023/03/26 10:18:36;;;;;;;11.98;2.17;;;8.90;99.90;;;;;;5011909;28;20129;-78
2023/03/26 10:21:16;;;;;;;12.55;2.38;;;9.10;99.90;;;;;;5030233;28;20045;-78
2023/03/26 10:24:05;;;;;;;15.32;2.72;;;8.90;99.90;;;;;;5036510;28;20049;-78
2023/03/26 10:27:06;;;;;;;14.23;2.63;;;8.90;99.90;;;;;;5028493;28;20080;-78
2023/03/26 10:29:51;;;;;;;21.50;3.40;;;9.20;99.90;;;;;;5011149;28;20404;-78
2023/03/26 10:32:30;;;;;;;10.05;2.28;;;9.40;99.90;;;;;;5036801;28;20052;-79
2023/03/26 10:35:21;;;;;;;14.68;2.60;;;9.20;99.90;;;;;;5041806;28;20122;-76
2023/03/26 10:38:28;;;;;;;9.80;2.05;;;9.20;99.90;;;;;;5029346;28;20041;-77
2023/03/26 10:41:20;;;;;;;11.75;2.08;;;9.20;99.90;;;;;;5032517;28;20063;-79
2023/03/26 10:44:23;;;;;;;20.75;3.28;;;9.20;99.90;;;;;;5033635;28;20114;-77
2023/03/26 10:47:08;;;;;;;21.15;3.40;;;9.40;99.90;;;;;;5032755;28;20132;-78
2023/03/26 10:49:36;;;;;;;16.77;2.92;;;9.60;99.90;;;;;;5037352;28;20045;-78
2023/03/26 10:52:17;;;;;;;10.93;2.80;;;9.50;99.90;;;;;;5037435;28;20046;-78
2023/03/26 10:54:54;;;;;;;16.83;2.70;;;9.70;99.90;;;;;;5036248;28;20038;-78
2023/03/26 10:57:44;;;;;;;13.35;3.13;;;9.60;99.90;;;;;;5018554;28;20057;-78
2023/03/26 11:00:25;;;;;;;11.93;2.35;;;9.50;99.90;;;;;;5035812;28;20111;-79
2023/03/26 11:03:26;;;;;;;12.82;2.90;;;9.60;99.90;;;;;;5036868;28;20060;-79
2023/03/26 11:06:02;;;;;;;11.77;2.50;;;9.50;99.90;;;;;;5055326;28;20045;-79
2023/03/26 11:08:30;;;;;;;12.95;3.00;;;9.40;99.90;;;;;;5055246;28;20045;-79
2023/03/26 11:11:14;;;;;;;12.68;2.55;;;9.50;99.90;;;;;;5047116;28;20042;-79
2023/03/26 11:13:47;;;;;;;9.35;2.50;;;9.50;99.90;;;;;;5037347;28;20057;-79
2023/03/26 11:16:34;;;;;;;13.38;2.70;;;9.70;99.90;;;;;;5034487;28;20487;-79
2023/03/26 11:19:20;;;;;;;13.48;3.17;;;9.80;99.90;;;;;;5039880;28;20072;-79
2023/03/26 11:21:55;;;;;;;14.40;2.33;;;9.90;99.90;;;;;;5039177;28;20045;-79
2023/03/26 11:24:40;;;;;;;14.43;2.75;;;9.80;99.90;;;;;;5036558;28;20045;-79
2023/03/26 11:27:30;;;;;;;9.88;2.20;;;9.70;99.90;;;;;;5019608;28;20056;-79
2023/03/26 11:30:17;;;;;;;13.07;2.20;;;9.50;99.90;;;;;;5054456;28;20068;-79
2023/03/26 11:32:53;;;;;;;12.45;2.45;;;9.50;99.90;;;;;;5029703;28;20041;-78
2023/03/26 11:35:34;;;;;;;14.80;2.45;;;9.40;99.90;;;;;;5034200;28;20405;-78
2023/03/26 11:38:10;;;;;;;16.67;2.67;;;9.40;99.90;;;;;;5023545;28;20056;-77
2023/03/26 11:40:42;;;;;;;9.85;2.20;;;9.50;99.90;;;;;;5022619;28;20052;-77
2023/03/26 11:43:11;;;;;;;12.85;2.92;;;9.60;99.90;;;;;;5013872;28;20140;-78
2023/03/26 11:45:41;;;;;;;8.23;2.00;;;9.50;99.90;;;;;;5014142;28;20125;-78
2023/03/26 11:48:22;;;;;;;8.43;2.10;;;9.50;99.90;;;;;;5012656;28;20053;-78
2023/03/26 11:50:54;;;;;;;13.25;2.75;;;9.60;99.90;;;;;;5023245;28;20050;-78
2023/03/26 11:53:23;;;;;;;10.57;2.17;;;9.70;99.90;;;;;;5040462;28;20049;-78
2023/03/26 11:56:02;;;;;;;15.65;2.80;;;9.70;99.90;;;;;;5053661;28;20052;-78
2023/03/26 11:58:37;;;;;;;6.30;1.70;;;9.80;99.90;;;;;;5053283;28;20171;-78
2023/03/26 12:01:11;;;;;;;10.30;2.15;;;9.70;99.90;;;;;;5035853;28;20059;-78
2023/03/26 12:03:39;;;;;;;7.38;2.15;;;9.50;99.90;;;;;;5035428;28;20053;-78
2023/03/26 12:06:05;;;;;;;11.55;1.77;;;9.50;99.90;;;;;;5036092;28;20045;-77
2023/03/26 12:08:38;;;;;;;10.50;2.95;;;9.40;99.90;;;;;;5039752;28;20341;-76
2023/03/26 12:11:09;;;;;;;7.05;1.88;;;9.60;99.90;;;;;;5035246;28;20060;-76
2023/03/26 12:13:58;;;;;;;8.73;2.22;;;9.60;99.90;;;;;;5015436;28;20103;-76
2023/03/26 12:16:24;;;;;;;12.20;2.28;;;9.60;99.90;;;;;;5032805;28;20116;-77
2023/03/26 12:19:02;;;;;;;12.82;2.40;;;9.70;99.90;;;;;;5018411;28;20599;-77
2023/03/26 12:21:28;;;;;;;10.18;2.38;;;9.70;99.90;;;;;;5027035;28;20079;-77
2023/03/26 12:24:04;;;;;;;11.02;1.65;;;9.60;99.90;;;;;;5050729;28;20438;-77
2023/03/26 12:26:45;;;;;;;8.25;2.20;;;9.60;99.90;;;;;;5033114;28;20047;-77
2023/03/26 12:29:13;;;;;;;10.73;1.80;;;9.40;99.90;;;;;;4998723;28;20103;-77
2023/03/26 12:32:11;;;;;;;9.35;1.92;;;9.50;99.90;;;;;;5029090;28;20125;-77
2023/03/26 12:34:38;;;;;;;8.63;1.73;;;9.70;99.90;;;;;;5043653;28;20498;-77
2023/03/26 12:37:06;;;;;;;11.98;2.42;;;9.70;99.90;;;;;;5052748;28;20044;-77
2023/03/26 12:39:33;;;;;;;8.68;1.80;;;9.60;99.90;;;;;;5034609;28;20040;-77
2023/03/26 12:42:01;;;;;;;13.63;2.13;;;9.70;99.90;;;;;;5042177;28;20509;-77
2023/03/26 12:44:34;;;;;;;11.52;2.88;;;9.60;99.90;;;;;;5032826;28;20128;-77
2023/03/26 12:47:20;;;;;;;8.65;2.10;;;9.50;99.90;;;;;;4998257;28;20068;-77
2023/03/26 12:49:47;;;;;;;13.30;2.85;;;9.70;99.90;;;;;;5011396;28;20395;-76
2023/03/26 12:52:37;;;;;;;10.32;1.75;;;9.70;99.90;;;;;;5052269;28;20063;-77
2023/03/26 12:55:30;;;;;;;7.18;1.77;;;9.60;99.90;;;;;;5052596;28;20062;-77
2023/03/26 12:58:04;;;;;;;9.77;2.42;;;9.70;99.90;;;;;;5010502;28;20516;-76
2023/03/26 13:00:36;;;;;;;7.50;1.92;;;9.60;99.90;;;;;;5032499;28;20156;-76
2023/03/26 13:03:36;;;;;;;6.32;1.90;;;9.30;99.90;;;;;;5013749;28;20053;-76
2023/03/26 13:06:36;;;;;;;10.85;2.33;;;9.40;99.90;;;;;;5032393;28;20152;-76
2023/03/26 13:09:34;;;;;;;9.82;1.80;;;9.50;99.90;;;;;;5032155;28;20163;-77
2023/03/26 13:12:29;;;;;;;11.25;1.95;;;9.60;99.90;;;;;;5013926;28;20053;-76
2023/03/26 13:15:23;;;;;;;11.30;2.35;;;9.60;99.90;;;;;;5016053;28;20090;-76
2023/03/26 13:18:12;;;;;;;8.20;1.83;;;10.40;99.90;;;;;;5029613;28;20045;-76
2023/03/26 13:21:02;;;;;;;10.00;2.42;;;10.00;99.90;;;;;;5032114;28;20442;-76
2023/03/26 13:23:36;;;;;;;3.72;1.23;;;10.40;99.90;;;;;;5001458;28;20046;-76
2023/03/26 13:26:39;;;;;;;9.23;1.80;;;10.10;99.90;;;;;;5032665;28;20561;-77
2023/03/26 13:29:43;;;;;;;12.80;2.58;;;10.00;99.90;;;;;;4995090;28;20068;-77
2023/03/26 13:32:32;;;;;;;9.25;2.03;;;10.00;99.90;;;;;;5044265;28;20430;-77
2023/03/26 13:35:28;;;;;;;14.18;2.33;;;10.10;99.90;;;;;;5036486;28;20047;-77